createdAt,value
2018-02-11T00:02:09.518Z,3.86
2018-02-11T00:04:37.267Z,3.88
2018-02-11T00:07:04.831Z,3.88
2018-02-11T00:09:32.701Z,3.90
2018-02-11T00:12:00.419Z,3.93
2018-02-11T00:14:27.982Z,3.90
2018-02-11T00:16:55.556Z,3.91
2018-02-11T00:19:23.112Z,3.93
2018-02-11T00:21:50.678Z,3.93
2018-02-11T00:24:18.228Z,3.88
2018-02-11T00:26:45.841Z,3.86
2018-02-11T00:29:13.398Z,3.82
2018-02-11T00:31:40.959Z,3.78
2018-02-11T00:34:08.780Z,3.72
2018-02-11T00:36:36.382Z,3.70
2018-02-11T00:39:04.046Z,3.73
2018-02-11T00:41:31.582Z,3.72
2018-02-11T00:43:59.271Z,3.70
2018-02-11T00:46:26.836Z,3.74
2018-02-11T00:48:54.549Z,3.74
2018-02-11T00:51:22.265Z,3.72
2018-02-11T00:53:49.981Z,3.70
2018-02-11T00:56:17.550Z,3.66
2018-02-11T00:58:45.106Z,3.67
2018-02-11T01:01:12.855Z,3.73
2018-02-11T01:03:40.695Z,3.72
2018-02-11T01:06:08.512Z,3.68
2018-02-11T01:08:36.073Z,3.65
2018-02-11T01:11:03.640Z,3.62
2018-02-11T01:13:31.206Z,3.61
2018-02-11T01:15:58.760Z,3.57
2018-02-11T01:18:26.603Z,3.61
2018-02-11T01:20:54.170Z,3.68
2018-02-11T01:23:21.721Z,3.69
2018-02-11T01:25:49.268Z,3.60
2018-02-11T01:28:17.075Z,3.63
2018-02-11T01:30:44.646Z,3.65
2018-02-11T01:33:12.412Z,3.67
2018-02-11T01:35:40.119Z,3.67
2018-02-11T01:38:07.688Z,3.64
2018-02-11T01:40:35.467Z,3.63
2018-02-11T01:43:03.075Z,3.60
2018-02-11T01:45:30.770Z,3.61
2018-02-11T01:47:58.333Z,3.63
2018-02-11T01:50:25.882Z,3.58
2018-02-11T01:52:53.497Z,3.54
2018-02-11T01:55:21.273Z,3.52
2018-02-11T01:57:48.822Z,3.52
2018-02-11T02:00:16.558Z,3.45
2018-02-11T02:02:44.117Z,3.40
2018-02-11T02:05:11.844Z,3.34
2018-02-11T02:07:39.398Z,3.35
2018-02-11T02:10:07.180Z,3.31
2018-02-11T02:12:34.998Z,3.28
2018-02-11T02:15:02.689Z,3.22
2018-02-11T02:17:30.404Z,3.23
2018-02-11T02:19:58.155Z,3.25
2018-02-11T02:22:25.719Z,3.17
2018-02-11T02:24:53.453Z,3.19
2018-02-11T02:27:21.057Z,3.17
2018-02-11T02:29:48.616Z,3.09
2018-02-11T02:32:16.178Z,3.06
2018-02-11T02:34:43.806Z,3.04
2018-02-11T02:37:11.358Z,3.00
2018-02-11T02:39:39.074Z,3.02
2018-02-11T02:42:06.706Z,2.97
2018-02-11T02:44:34.322Z,2.92
2018-02-11T02:47:01.883Z,2.87
2018-02-11T02:49:29.668Z,2.97
2018-02-11T02:51:57.230Z,2.97
2018-02-11T02:54:24.897Z,2.94
2018-02-11T02:56:52.460Z,2.86
2018-02-11T02:59:20.132Z,2.83
2018-02-11T03:01:47.961Z,2.71
2018-02-11T03:04:15.678Z,2.69
2018-02-11T03:06:43.250Z,2.62
2018-02-11T03:09:10.810Z,2.62
2018-02-11T03:11:38.357Z,2.53
2018-02-11T03:14:05.914Z,2.51
2018-02-11T03:16:33.474Z,2.47
2018-02-11T03:19:01.083Z,2.43
2018-02-11T03:21:28.662Z,2.51
2018-02-11T03:23:56.333Z,2.46
2018-02-11T03:26:24.106Z,2.44
2018-02-11T03:28:51.672Z,2.45
2018-02-11T03:31:19.239Z,2.36
2018-02-11T03:33:46.991Z,2.41
2018-02-11T03:36:15.712Z,2.37
2018-02-11T03:38:43.430Z,2.36
2018-02-11T03:41:10.986Z,2.39
2018-02-11T03:43:39.469Z,2.36
2018-02-11T03:46:07.288Z,2.35
2018-02-11T03:48:34.846Z,2.34
2018-02-11T03:51:02.405Z,2.33
2018-02-11T03:53:30.023Z,2.31
2018-02-11T03:55:57.650Z,2.26
2018-02-11T03:58:25.377Z,2.28
2018-02-11T04:00:52.995Z,2.22
2018-02-11T04:03:20.712Z,2.21
2018-02-11T04:05:48.513Z,2.22
2018-02-11T04:08:16.129Z,2.24
2018-02-11T04:10:43.968Z,2.32
2018-02-11T04:13:11.686Z,2.34
2018-02-11T04:15:39.238Z,2.38
2018-02-11T04:18:06.916Z,2.36
2018-02-11T04:20:34.609Z,2.33
2018-02-11T04:23:02.185Z,2.32
2018-02-11T04:25:29.734Z,2.21
2018-02-11T04:27:57.593Z,2.28
2018-02-11T04:30:25.311Z,2.25
2018-02-11T04:32:52.922Z,2.26
2018-02-11T04:35:20.485Z,2.20
2018-02-11T04:37:48.026Z,2.22
2018-02-11T04:40:15.578Z,2.22
2018-02-11T04:42:43.302Z,2.16
2018-02-11T04:45:10.901Z,2.12
2018-02-11T04:47:38.459Z,2.07
2018-02-11T04:50:06.024Z,2.05
2018-02-11T04:52:33.772Z,2.04
2018-02-11T04:55:01.328Z,2.04
2018-02-11T04:57:29.076Z,2.04
2018-02-11T04:59:56.629Z,2.03
2018-02-11T05:02:24.608Z,2.03
2018-02-11T05:04:52.166Z,2.04
2018-02-11T05:07:19.840Z,2.01
2018-02-11T05:09:47.406Z,2.05
2018-02-11T05:12:14.969Z,2.04
2018-02-11T05:14:42.736Z,2.10
2018-02-11T05:17:10.286Z,2.13
2018-02-11T05:19:37.894Z,2.09
2018-02-11T05:22:05.449Z,2.05
2018-02-11T05:24:33.005Z,2.05
2018-02-11T05:27:00.694Z,2.08
2018-02-11T05:29:28.245Z,2.08
2018-02-11T05:31:55.850Z,2.14
2018-02-11T05:34:23.415Z,2.18
2018-02-11T05:36:51.197Z,2.20
2018-02-11T05:39:18.749Z,2.20
2018-02-11T05:41:46.412Z,2.15
2018-02-11T05:44:14.108Z,2.10
2018-02-11T05:46:41.670Z,2.05
2018-02-11T05:49:09.257Z,2.00
2018-02-11T05:51:36.902Z,2.00
2018-02-11T05:54:04.672Z,1.98
2018-02-11T05:56:32.439Z,2.00
2018-02-11T05:58:59.998Z,2.01
2018-02-11T06:01:27.570Z,2.07
2018-02-11T06:03:55.130Z,2.03
2018-02-11T06:06:22.696Z,2.04
2018-02-11T06:08:50.264Z,2.06
2018-02-11T06:11:17.891Z,2.09
2018-02-11T06:13:45.663Z,2.13
2018-02-11T06:16:13.381Z,2.14
2018-02-11T06:18:40.965Z,2.18
2018-02-11T06:21:08.526Z,2.16
2018-02-11T06:23:36.113Z,2.14
2018-02-11T06:26:03.695Z,2.09
2018-02-11T06:28:31.471Z,2.08
2018-02-11T06:30:59.188Z,2.09
2018-02-11T06:33:26.731Z,2.11
2018-02-11T06:35:54.282Z,2.13
2018-02-11T06:38:22.041Z,2.13
2018-02-11T06:40:49.860Z,2.07
2018-02-11T06:43:17.581Z,2.10
2018-02-11T06:45:45.189Z,2.05
2018-02-11T06:48:12.879Z,2.10
2018-02-11T06:50:40.435Z,2.11
2018-02-11T06:53:08.025Z,2.16
2018-02-11T06:55:35.649Z,2.26
2018-02-11T06:58:03.218Z,2.24
2018-02-11T07:00:30.825Z,2.26
2018-02-11T07:02:58.445Z,2.28
2018-02-11T07:05:25.993Z,2.23
2018-02-11T07:07:53.542Z,2.28
2018-02-11T07:10:21.094Z,2.40
2018-02-11T07:12:48.650Z,2.46
2018-02-11T07:15:16.209Z,2.52
2018-02-11T07:17:44.062Z,2.46
2018-02-11T07:20:11.668Z,2.48
2018-02-11T07:22:39.252Z,2.60
2018-02-11T07:25:07.083Z,2.58
2018-02-11T07:27:34.927Z,2.58
2018-02-11T07:30:02.720Z,2.54
2018-02-11T07:32:30.627Z,2.62
2018-02-11T07:34:58.197Z,2.68
2018-02-11T07:37:25.730Z,2.70
2018-02-11T07:39:53.694Z,2.71
2018-02-11T07:42:21.365Z,2.78
2018-02-11T07:44:48.989Z,2.81
2018-02-11T07:47:16.541Z,2.95
2018-02-11T07:49:44.265Z,2.98
2018-02-11T07:52:11.899Z,3.04
2018-02-11T07:54:39.702Z,2.87
2018-02-11T07:57:07.316Z,2.80
2018-02-11T07:59:34.888Z,2.86
2018-02-11T08:02:02.477Z,2.90
2018-02-11T08:04:30.064Z,2.91
2018-02-11T08:06:57.992Z,2.93
2018-02-11T08:09:25.571Z,2.83
2018-02-11T08:11:53.186Z,2.78
2018-02-11T08:14:20.966Z,2.76
2018-02-11T08:16:48.785Z,2.75
2018-02-11T08:19:16.503Z,2.75
2018-02-11T08:21:44.065Z,2.73
2018-02-11T08:24:11.617Z,2.79
2018-02-11T08:26:39.169Z,2.81
2018-02-11T08:29:06.975Z,2.65
2018-02-11T08:31:34.793Z,2.63
2018-02-11T08:34:02.382Z,2.67
2018-02-11T08:36:29.935Z,2.63
2018-02-11T08:38:57.953Z,2.66
2018-02-11T08:41:25.529Z,2.70
2018-02-11T08:43:53.097Z,2.73
2018-02-11T08:46:20.701Z,2.70
2018-02-11T08:48:48.392Z,2.58
2018-02-11T08:51:15.963Z,2.63
2018-02-11T08:53:43.755Z,2.68
2018-02-11T08:56:11.363Z,2.76
2018-02-11T08:58:38.921Z,2.69
2018-02-11T09:01:06.473Z,2.75
2018-02-11T09:03:34.227Z,2.73
2018-02-11T09:06:01.826Z,2.66
2018-02-11T09:08:29.386Z,2.57
2018-02-11T09:10:56.970Z,2.40
2018-02-11T09:13:24.581Z,2.35
2018-02-11T09:15:52.133Z,2.24
2018-02-11T09:18:19.694Z,2.19
2018-02-11T09:20:47.262Z,2.09
2018-02-11T09:23:15.073Z,2.06
2018-02-11T09:25:43.095Z,2.07
2018-02-11T09:28:10.907Z,2.10
2018-02-11T09:30:38.727Z,2.13
2018-02-11T09:33:06.309Z,2.14
2018-02-11T09:35:33.866Z,2.15
2018-02-11T09:38:01.471Z,2.15
2018-02-11T09:40:29.035Z,2.13
2018-02-11T09:42:56.602Z,2.15
2018-02-11T09:45:24.332Z,2.07
2018-02-11T09:47:52.153Z,1.96
2018-02-11T09:50:19.889Z,1.99
2018-02-11T09:52:47.692Z,1.97
2018-02-11T09:55:15.253Z,1.93
2018-02-11T09:57:43.024Z,2.02
2018-02-11T10:00:10.655Z,2.01
2018-02-11T10:02:38.217Z,2.07
2018-02-11T10:05:05.782Z,2.08
2018-02-11T10:07:33.359Z,2.14
2018-02-11T10:10:01.076Z,2.05
2018-02-11T10:12:28.721Z,2.02
2018-02-11T10:14:56.287Z,2.07
2018-02-11T10:17:23.913Z,1.98
2018-02-11T10:19:51.466Z,1.81
2018-02-11T10:22:19.017Z,1.84
2018-02-11T10:24:46.600Z,1.92
2018-02-11T10:27:14.439Z,1.89
2018-02-11T10:29:42.262Z,1.78
2018-02-11T10:32:10.078Z,1.81
2018-02-11T10:34:37.694Z,1.84
2018-02-11T10:37:05.411Z,1.88
2018-02-11T10:39:33.135Z,1.96
2018-02-11T10:42:01.009Z,1.99
2018-02-11T10:44:28.561Z,1.96
2018-02-11T10:46:56.142Z,1.92
2018-02-11T10:49:23.693Z,1.94
2018-02-11T10:51:51.724Z,1.92
2018-02-11T10:54:19.475Z,1.82
2018-02-11T10:56:47.258Z,1.75
2018-02-11T10:59:14.840Z,1.73
2018-02-11T11:01:42.396Z,1.77
2018-02-11T11:04:09.958Z,1.79
2018-02-11T11:06:37.622Z,1.74
2018-02-11T11:09:05.349Z,1.77
2018-02-11T11:11:32.950Z,1.80
2018-02-11T11:14:00.510Z,1.77
2018-02-11T11:16:28.302Z,1.84
2018-02-11T11:18:55.861Z,1.87
2018-02-11T11:21:23.637Z,1.85
2018-02-11T11:23:51.341Z,1.91
2018-02-11T11:26:19.017Z,1.89
2018-02-11T11:28:46.573Z,1.87
2018-02-11T11:31:14.362Z,1.80
2018-02-11T11:33:41.990Z,1.73
2018-02-11T11:36:09.598Z,1.57
2018-02-11T11:38:37.822Z,1.41
2018-02-11T11:41:05.410Z,1.32
2018-02-11T11:43:33.202Z,1.30
2018-02-11T11:46:00.766Z,1.28
2018-02-11T11:48:28.418Z,1.24
2018-02-11T11:50:56.158Z,1.22
2018-02-11T11:53:23.797Z,1.19
2018-02-11T11:55:51.369Z,1.17
2018-02-11T11:58:20.210Z,1.21
2018-02-11T12:00:47.986Z,1.24
2018-02-11T12:03:15.525Z,1.26
2018-02-11T12:05:43.268Z,1.25
2018-02-11T12:08:10.843Z,1.34
2018-02-11T12:10:38.410Z,1.32
2018-02-11T12:13:06.079Z,1.36
2018-02-11T12:15:33.689Z,1.41
2018-02-11T12:18:01.372Z,1.50
2018-02-11T12:20:28.929Z,1.53
2018-02-11T12:22:56.514Z,1.56
2018-02-11T12:25:24.311Z,1.59
2018-02-11T12:27:52.130Z,1.57
2018-02-11T12:30:19.713Z,1.41
2018-02-11T12:32:47.261Z,1.39
2018-02-11T12:35:14.978Z,1.41
2018-02-11T12:37:42.607Z,1.41
2018-02-11T12:40:10.183Z,1.29
2018-02-11T12:42:37.754Z,1.27
2018-02-11T12:45:05.356Z,1.31
2018-02-11T12:47:33.173Z,1.35
2018-02-11T12:50:00.992Z,1.37
2018-02-11T12:52:28.813Z,1.40
2018-02-11T12:54:56.374Z,1.46
2018-02-11T12:57:23.931Z,1.50
2018-02-11T12:59:51.498Z,1.53
2018-02-11T13:02:19.164Z,1.45
2018-02-11T13:04:46.730Z,1.48
2018-02-11T13:07:14.485Z,1.48
2018-02-11T13:09:42.344Z,1.52
2018-02-11T13:12:10.154Z,1.62
2018-02-11T13:14:37.709Z,1.63
2018-02-11T13:17:05.277Z,1.59
2018-02-11T13:19:32.892Z,1.55
2018-02-11T13:22:00.726Z,1.51
2018-02-11T13:24:28.322Z,1.50
2018-02-11T13:26:56.141Z,1.54
2018-02-11T13:29:23.683Z,1.54
2018-02-11T13:31:51.248Z,1.51
2018-02-11T13:34:19.016Z,1.54
2018-02-11T13:36:46.551Z,1.57
2018-02-11T13:39:14.127Z,1.56
2018-02-11T13:41:41.687Z,1.44
2018-02-11T13:44:09.302Z,1.41
2018-02-11T13:46:36.876Z,1.32
2018-02-11T13:49:04.434Z,1.27
2018-02-11T13:51:32.006Z,1.24
2018-02-11T13:53:59.585Z,1.20
2018-02-11T13:56:27.164Z,1.29
2018-02-11T13:58:54.886Z,1.20
2018-02-11T14:01:22.501Z,1.23
2018-02-11T14:03:50.288Z,1.25
2018-02-11T14:06:17.864Z,1.24
2018-02-11T14:08:45.665Z,1.25
2018-02-11T14:11:13.271Z,1.17
2018-02-11T14:13:40.895Z,1.14
2018-02-11T14:16:08.511Z,1.14
2018-02-11T14:18:36.336Z,1.21
2018-02-11T14:21:04.055Z,1.23
2018-02-11T14:23:31.613Z,1.21
2018-02-11T14:25:59.189Z,1.20
2018-02-11T14:28:26.741Z,1.17
2018-02-11T14:30:54.294Z,1.14
2018-02-11T14:33:21.845Z,1.14
2018-02-11T14:35:49.662Z,1.18
2018-02-11T14:38:17.380Z,1.17
2018-02-11T14:40:44.951Z,1.18
2018-02-11T14:43:12.719Z,1.15
2018-02-11T14:45:40.339Z,1.13
2018-02-11T14:48:07.933Z,1.15
2018-02-11T14:50:35.509Z,1.18
2018-02-11T14:53:04.022Z,1.13
2018-02-11T14:55:31.809Z,1.07
2018-02-11T14:57:59.509Z,1.10
2018-02-11T15:00:27.118Z,1.03
2018-02-11T15:02:54.862Z,1.08
2018-02-11T15:05:22.584Z,1.12
2018-02-11T15:07:50.303Z,1.16
2018-02-11T15:10:18.222Z,1.08
2018-02-11T15:12:45.787Z,1.15
2018-02-11T15:15:13.347Z,1.17
2018-02-11T15:17:40.926Z,1.23
2018-02-11T15:20:08.585Z,1.26
2018-02-11T15:22:36.257Z,1.21
2018-02-11T15:25:04.009Z,1.22
2018-02-11T15:27:31.637Z,1.18
2018-02-11T15:29:59.351Z,1.14
2018-02-11T15:32:26.915Z,1.16
2018-02-11T15:34:54.567Z,1.15
2018-02-11T15:37:22.320Z,1.14
2018-02-11T15:39:49.938Z,1.18
2018-02-11T15:42:17.757Z,1.23
2018-02-11T15:44:45.317Z,1.29
2018-02-11T15:47:12.906Z,1.36
2018-02-11T15:49:40.500Z,1.45
2018-02-11T15:52:08.117Z,1.48
2018-02-11T15:54:35.673Z,1.38
2018-02-11T15:57:03.261Z,1.36
2018-02-11T15:59:30.864Z,1.32
2018-02-11T16:01:58.432Z,1.33
2018-02-11T16:04:26.316Z,1.33
2018-02-11T16:06:53.920Z,1.36
2018-02-11T16:09:21.652Z,1.37
2018-02-11T16:11:49.244Z,1.31
2018-02-11T16:14:16.801Z,1.36
2018-02-11T16:16:46.405Z,1.36
2018-02-11T16:19:14.231Z,1.26
2018-02-11T16:21:42.052Z,1.18
2018-02-11T16:24:09.614Z,1.19
2018-02-11T16:26:37.362Z,1.19
2018-02-11T16:29:05.339Z,1.12
2018-02-11T16:31:33.047Z,1.14
2018-02-11T16:34:00.647Z,1.14
2018-02-11T16:36:28.459Z,1.20
2018-02-11T16:38:56.025Z,1.30
2018-02-11T16:41:23.762Z,1.32
2018-02-11T16:43:51.474Z,1.32
2018-02-11T16:46:19.039Z,1.35
2018-02-11T16:48:46.849Z,1.31
2018-02-11T16:51:14.568Z,1.25
2018-02-11T16:53:42.222Z,1.32
2018-02-11T16:56:09.784Z,1.34
2018-02-11T16:58:37.521Z,1.26
2018-02-11T17:01:05.093Z,1.20
2018-02-11T17:03:32.829Z,1.14
2018-02-11T17:06:00.443Z,1.06
2018-02-11T17:08:28.011Z,1.04
2018-02-11T17:10:55.578Z,1.07
2018-02-11T17:13:23.151Z,1.06
2018-02-11T17:15:50.909Z,1.04
2018-02-11T17:18:18.521Z,1.00
2018-02-11T17:20:46.063Z,1.01
2018-02-11T17:23:13.631Z,1.01
2018-02-11T17:25:41.195Z,1.04
2018-02-11T17:28:08.758Z,1.01
2018-02-11T17:30:36.531Z,1.03
2018-02-11T17:33:04.271Z,1.01
2018-02-11T17:35:31.841Z,1.02
2018-02-11T17:37:59.604Z,1.01
2018-02-11T17:40:27.201Z,0.98
2018-02-11T17:42:55.046Z,0.97
2018-02-11T17:45:22.863Z,0.95
2018-02-11T17:47:50.457Z,0.95
2018-02-11T17:50:18.041Z,0.94
2018-02-11T17:52:45.595Z,0.97
2018-02-11T17:55:13.229Z,1.05
2018-02-11T17:57:40.797Z,1.06
2018-02-11T18:00:08.366Z,1.14
2018-02-11T18:02:35.978Z,1.19
2018-02-11T18:05:03.798Z,1.17
2018-02-11T18:07:31.621Z,1.19
2018-02-11T18:09:59.313Z,1.23
2018-02-11T18:12:27.028Z,1.21
2018-02-11T18:14:54.590Z,1.22
2018-02-11T18:17:22.141Z,1.21
2018-02-11T18:19:49.867Z,1.18
2018-02-11T18:22:17.457Z,1.08
2018-02-11T18:24:45.073Z,1.07
2018-02-11T18:27:12.633Z,1.08
2018-02-11T18:29:40.386Z,1.12
2018-02-11T18:32:08.204Z,1.21
2018-02-11T18:34:35.814Z,1.18
2018-02-11T18:37:03.370Z,1.20
2018-02-11T18:39:31.158Z,1.21
2018-02-11T18:41:58.872Z,1.24
2018-02-11T18:44:26.695Z,1.22
2018-02-11T18:46:54.478Z,1.28
2018-02-11T18:49:22.041Z,1.29
2018-02-11T18:51:49.640Z,1.32
2018-02-11T18:54:17.198Z,1.28
2018-02-11T18:56:45.143Z,1.24
2018-02-11T18:59:12.903Z,1.28
2018-02-11T19:01:40.462Z,1.35
2018-02-11T19:04:08.026Z,1.37
2018-02-11T19:06:35.644Z,1.46
2018-02-11T19:09:03.468Z,1.45
2018-02-11T19:11:31.194Z,1.40
2018-02-11T19:13:58.749Z,1.39
2018-02-11T19:16:26.421Z,1.47
2018-02-11T19:18:54.150Z,1.46
2018-02-11T19:21:21.781Z,1.46
2018-02-11T19:23:49.330Z,1.50
2018-02-11T19:26:17.101Z,1.41
2018-02-11T19:28:44.922Z,1.42
2018-02-11T19:31:12.619Z,1.46
2018-02-11T19:33:40.457Z,1.53
2018-02-11T19:36:08.017Z,1.54
2018-02-11T19:38:35.574Z,1.53
2018-02-11T19:41:03.147Z,1.60
2018-02-11T19:43:30.705Z,1.57
2018-02-11T19:45:58.459Z,1.59
2018-02-11T19:48:26.097Z,1.63
2018-02-11T19:50:53.676Z,1.60
2018-02-11T19:53:21.490Z,1.67
2018-02-11T19:55:49.060Z,1.75
2018-02-11T19:58:16.682Z,1.75
2018-02-11T20:00:44.456Z,1.74
2018-02-11T20:03:12.005Z,1.70
2018-02-11T20:05:39.610Z,1.68
2018-02-11T20:08:07.354Z,1.70
2018-02-11T20:10:34.994Z,1.69
2018-02-11T20:13:02.559Z,1.70
2018-02-11T20:15:30.153Z,1.75
2018-02-11T20:17:57.729Z,1.73
2018-02-11T20:20:25.299Z,1.73
2018-02-11T20:22:52.942Z,1.71
2018-02-11T20:25:20.502Z,1.68
2018-02-11T20:27:48.302Z,1.63
2018-02-11T20:30:16.116Z,1.61
2018-02-11T20:32:43.677Z,1.57
2018-02-11T20:35:11.402Z,1.56
2018-02-11T20:37:39.129Z,1.49
2018-02-11T20:40:06.713Z,1.45
2018-02-11T20:42:34.282Z,1.49
2018-02-11T20:45:01.846Z,1.57
2018-02-11T20:47:29.641Z,1.61
2018-02-11T20:49:57.198Z,1.65
2018-02-11T20:52:24.978Z,1.67
2018-02-11T20:54:52.793Z,1.70
2018-02-11T20:57:20.359Z,1.72
2018-02-11T20:59:47.966Z,1.67
2018-02-11T21:02:15.750Z,1.64
2018-02-11T21:04:43.432Z,1.57
2018-02-11T21:07:10.994Z,1.51
2018-02-11T21:09:38.601Z,1.59
2018-02-11T21:12:06.359Z,1.62
2018-02-11T21:14:34.125Z,1.70
2018-02-11T21:17:01.682Z,1.74
2018-02-11T21:19:29.478Z,1.76
2018-02-11T21:21:57.033Z,1.79
2018-02-11T21:24:24.642Z,1.77
2018-02-11T21:26:52.430Z,1.79
2018-02-11T21:29:19.989Z,1.72
2018-02-11T21:31:47.784Z,1.71
2018-02-11T21:34:15.345Z,1.69
2018-02-11T21:36:43.404Z,1.66
2018-02-11T21:39:10.972Z,1.50
2018-02-11T21:41:38.590Z,1.38
2018-02-11T21:44:06.357Z,1.35
2018-02-11T21:46:33.926Z,1.31
2018-02-11T21:49:01.567Z,1.28
2018-02-11T21:51:29.125Z,1.25
2018-02-11T21:53:56.693Z,1.28
2018-02-11T21:56:24.325Z,1.29
2018-02-11T21:58:51.881Z,1.31
2018-02-11T22:01:19.502Z,1.35
2018-02-11T22:03:47.066Z,1.37
2018-02-11T22:06:14.784Z,1.35
2018-02-11T22:08:42.325Z,1.33
2018-02-11T22:11:09.889Z,1.32
2018-02-11T22:13:37.562Z,1.30
2018-02-11T22:16:05.122Z,1.35
2018-02-11T22:18:32.678Z,1.37
2018-02-11T22:21:00.236Z,1.39
2018-02-11T22:23:27.775Z,1.40
2018-02-11T22:25:55.385Z,1.43
2018-02-11T22:28:23.068Z,1.45
2018-02-11T22:30:50.653Z,1.47
2018-02-11T22:33:18.214Z,1.45
2018-02-11T22:35:45.766Z,1.42
2018-02-11T22:38:13.413Z,1.41
2018-02-11T22:40:41.045Z,1.41
2018-02-11T22:43:08.602Z,1.41
2018-02-11T22:45:36.402Z,1.44
2018-02-11T22:48:04.135Z,1.44
2018-02-11T22:50:31.939Z,1.42
2018-02-11T22:52:59.536Z,1.40
2018-02-11T22:55:27.095Z,1.37
2018-02-11T22:57:54.893Z,1.41
2018-02-11T23:00:22.442Z,1.39
2018-02-11T23:05:17.873Z,1.38
2018-02-11T23:07:45.437Z,1.36
2018-02-11T23:10:13.061Z,1.37
2018-02-11T23:12:40.607Z,1.38
2018-02-11T23:15:08.215Z,1.43
2018-02-11T23:17:35.770Z,1.48
2018-02-11T23:20:03.518Z,1.54
2018-02-11T23:22:31.372Z,1.60
2018-02-11T23:24:58.933Z,1.63
2018-02-11T23:27:26.692Z,1.68
2018-02-11T23:29:54.241Z,1.67
2018-02-11T23:32:22.044Z,1.63
2018-02-11T23:34:49.610Z,1.62
2018-02-11T23:37:17.197Z,1.66
2018-02-11T23:39:44.998Z,1.64
2018-02-11T23:42:12.554Z,1.61
2018-02-11T23:44:40.214Z,1.59
2018-02-11T23:47:07.782Z,1.61
2018-02-11T23:49:35.474Z,1.63
2018-02-11T23:52:03.280Z,1.62
2018-02-11T23:54:31.106Z,1.63
2018-02-11T23:56:58.825Z,1.64
2018-02-11T23:59:26.644Z,1.64
